createdAt,value
2018-04-11T00:01:16.435Z,4.50
2018-04-11T00:03:43.952Z,4.93
2018-04-11T00:06:11.507Z,4.27
2018-04-11T00:08:39.031Z,4.70
2018-04-11T00:11:06.589Z,4.47
2018-04-11T00:13:34.100Z,4.10
2018-04-11T00:16:01.623Z,3.70
2018-04-11T00:18:29.171Z,4.17
2018-04-11T00:20:56.690Z,4.00
2018-04-11T00:23:24.223Z,4.23
2018-04-11T00:25:51.755Z,4.00
2018-04-11T00:28:19.339Z,4.97
2018-04-11T00:30:47.644Z,4.70
2018-04-11T00:33:15.187Z,4.57
2018-04-11T00:35:43.468Z,4.83
2018-04-11T00:38:11.012Z,4.47
2018-04-11T00:40:39.301Z,4.27
2018-04-11T00:43:06.854Z,4.77
2018-04-11T00:45:35.139Z,4.73
2018-04-11T00:48:02.780Z,4.80
2018-04-11T00:50:30.294Z,4.53
2018-04-11T00:53:09.973Z,4.40
2018-04-11T00:55:37.487Z,4.60
2018-04-11T00:58:05.003Z,4.40
2018-04-11T01:00:33.309Z,4.60
2018-04-11T01:03:00.827Z,4.80
2018-04-11T01:05:28.364Z,4.90
2018-04-11T01:07:55.911Z,5.47
2018-04-11T01:10:23.474Z,5.20
2018-04-11T01:12:51.055Z,4.70
2018-04-11T01:15:18.555Z,4.30
2018-04-11T01:17:46.079Z,4.90
2018-04-11T01:20:14.384Z,5.23
2018-04-11T01:22:41.913Z,4.77
2018-04-11T01:25:09.476Z,4.80
2018-04-11T01:27:37.001Z,4.63
2018-04-11T01:30:04.516Z,5.10
2018-04-11T01:32:32.878Z,4.90
2018-04-11T01:35:00.413Z,5.47
2018-04-11T01:37:27.959Z,4.80
2018-04-11T01:39:55.482Z,5.10
2018-04-11T01:42:23.024Z,5.30
2018-04-11T01:44:50.544Z,5.30
2018-04-11T01:47:18.097Z,5.20
2018-04-11T01:49:46.397Z,5.00
2018-04-11T01:52:13.937Z,4.90
2018-04-11T01:54:41.451Z,5.13
2018-04-11T01:57:08.986Z,5.67
2018-04-11T01:59:36.577Z,5.20
2018-04-11T02:02:04.148Z,5.90
2018-04-11T02:04:31.668Z,5.90
2018-04-11T02:06:59.196Z,6.50
2018-04-11T02:09:26.729Z,5.60
2018-04-11T02:11:54.243Z,5.40
2018-04-11T02:14:21.781Z,6.30
2018-04-11T02:16:49.309Z,6.23
2018-04-11T02:19:17.614Z,6.10
2018-04-11T02:21:45.141Z,6.00
2018-04-11T02:24:12.689Z,6.13
2018-04-11T02:26:40.238Z,5.80
2018-04-11T02:29:07.816Z,6.10
2018-04-11T02:31:35.341Z,5.70
2018-04-11T02:34:02.892Z,6.63
2018-04-11T02:36:30.419Z,6.27
2018-04-11T02:38:58.050Z,6.70
2018-04-11T02:41:26.344Z,6.43
2018-04-11T02:43:53.876Z,7.60
2018-04-11T02:46:21.652Z,7.13
2018-04-11T02:48:49.173Z,6.73
2018-04-11T02:51:16.715Z,7.33
2018-04-11T02:53:44.294Z,7.27
2018-04-11T02:56:11.840Z,7.37
2018-04-11T02:58:39.835Z,7.73
2018-04-11T03:01:07.389Z,7.80
2018-04-11T03:03:35.705Z,9.93
2018-04-11T03:06:03.257Z,8.43
2018-04-11T03:08:30.783Z,9.60
2018-04-11T03:10:58.331Z,9.47
2018-04-11T03:13:25.851Z,10.33
2018-04-11T03:15:53.380Z,11.53
2018-04-11T03:18:21.692Z,11.87
2018-04-11T03:20:49.228Z,11.00
2018-04-11T03:23:16.776Z,11.87
2018-04-11T03:25:44.315Z,14.13
2018-04-11T03:28:11.889Z,14.20
2018-04-11T03:30:39.437Z,13.67
2018-04-11T03:33:07.753Z,15.60
2018-04-11T03:35:35.297Z,15.57
2018-04-11T03:38:02.834Z,16.93
2018-04-11T03:40:30.392Z,16.70
2018-04-11T03:42:58.726Z,16.70
2018-04-11T03:45:26.277Z,17.73
2018-04-11T03:47:53.810Z,18.87
2018-04-11T03:50:21.373Z,18.53
2018-04-11T03:52:49.670Z,18.63
2018-04-11T03:55:17.214Z,17.70
2018-04-11T03:57:44.755Z,19.10
2018-04-11T04:00:12.364Z,20.03
2018-04-11T04:02:39.911Z,19.50
2018-04-11T04:05:07.488Z,19.50
2018-04-11T04:07:35.600Z,20.37
2018-04-11T04:10:04.035Z,20.90
2018-04-11T04:12:31.578Z,20.47
2018-04-11T04:15:10.758Z,21.40
2018-04-11T04:17:50.259Z,19.83
2018-04-11T04:20:29.677Z,22.77
2018-04-11T04:22:57.208Z,22.63
2018-04-11T04:25:24.751Z,23.67
2018-04-11T04:27:52.340Z,24.30
2018-04-11T04:30:19.869Z,23.87
2018-04-11T04:32:47.429Z,23.80
2018-04-11T04:35:15.738Z,25.57
2018-04-11T04:37:43.291Z,23.57
2018-04-11T04:40:10.816Z,23.47
2018-04-11T04:42:39.273Z,26.00
2018-04-11T04:45:07.590Z,26.73
2018-04-11T04:47:35.172Z,26.47
2018-04-11T04:50:02.720Z,26.27
2018-04-11T04:52:30.257Z,26.27
2018-04-11T04:54:57.829Z,26.97
2018-04-11T04:57:25.377Z,26.70
2018-04-11T04:59:52.940Z,31.57
2018-04-11T05:02:21.235Z,29.57
2018-04-11T05:04:48.796Z,28.90
2018-04-11T05:07:16.340Z,28.03
2018-04-11T05:09:43.891Z,30.37
2018-04-11T05:12:11.421Z,28.83
2018-04-11T05:14:39.085Z,30.27
2018-04-11T05:17:06.648Z,29.87
2018-04-11T05:19:34.195Z,29.43
2018-04-11T05:22:01.757Z,30.30
2018-04-11T05:24:29.321Z,31.07
2018-04-11T05:26:56.863Z,30.77
2018-04-11T05:29:24.383Z,29.77
2018-04-11T05:31:51.932Z,31.10
2018-04-11T05:34:19.467Z,29.93
2018-04-11T05:36:47.024Z,30.00
2018-04-11T05:39:14.562Z,30.03
2018-04-11T05:41:42.111Z,28.47
2018-04-11T05:44:10.404Z,29.03
2018-04-11T05:46:37.947Z,28.80
2018-04-11T05:49:05.499Z,29.73
2018-04-11T05:51:33.074Z,30.67
2018-04-11T05:54:00.617Z,27.30
2018-04-11T05:56:28.912Z,28.17
2018-04-11T05:58:56.465Z,28.43
2018-04-11T06:01:24.005Z,28.13
2018-04-11T06:03:52.336Z,25.93
2018-04-11T06:06:19.863Z,26.47
2018-04-11T06:08:47.425Z,25.27
2018-04-11T06:11:14.977Z,24.97
2018-04-11T06:13:42.546Z,25.37
2018-04-11T06:16:10.069Z,24.57
2018-04-11T06:18:37.624Z,23.63
2018-04-11T06:21:05.968Z,24.17
2018-04-11T06:23:33.526Z,24.20
2018-04-11T06:26:01.067Z,24.67
2018-04-11T06:28:28.638Z,23.50
2018-04-11T06:30:56.170Z,23.87
2018-04-11T06:33:23.737Z,24.87
2018-04-11T06:35:51.278Z,25.67
2018-04-11T06:38:18.828Z,23.10
2018-04-11T06:40:46.367Z,24.33
2018-04-11T06:43:13.893Z,22.73
2018-04-11T06:45:41.431Z,22.67
2018-04-11T06:48:09.721Z,23.03
2018-04-11T06:50:37.974Z,22.63
2018-04-11T06:53:05.517Z,21.67
2018-04-11T06:55:33.078Z,21.70
2018-04-11T06:58:00.613Z,22.27
2018-04-11T07:00:28.182Z,22.13
2018-04-11T07:02:55.736Z,22.33
2018-04-11T07:05:23.291Z,21.87
2018-04-11T07:07:51.601Z,21.27
2018-04-11T07:10:19.133Z,21.00
2018-04-11T07:12:46.707Z,20.63
2018-04-11T07:15:14.233Z,20.83
2018-04-11T07:17:41.788Z,20.47
2018-04-11T07:20:10.104Z,19.37
2018-04-11T07:22:37.661Z,19.70
2018-04-11T07:25:05.196Z,19.23
2018-04-11T07:27:32.735Z,19.70
2018-04-11T07:30:00.267Z,18.70
2018-04-11T07:32:27.836Z,18.53
2018-04-11T07:34:55.355Z,17.57
2018-04-11T07:37:22.947Z,18.90
2018-04-11T07:39:50.530Z,17.93
2018-04-11T07:42:18.107Z,18.37
2018-04-11T07:44:45.631Z,18.60
2018-04-11T07:47:13.151Z,17.20
2018-04-11T07:49:40.693Z,17.70
2018-04-11T07:52:08.213Z,17.10
2018-04-11T07:54:35.798Z,17.73
2018-04-11T07:57:04.716Z,18.63
2018-04-11T07:59:32.257Z,16.90
2018-04-11T08:01:59.787Z,17.40
2018-04-11T08:04:27.336Z,17.07
2018-04-11T08:06:55.645Z,17.83
2018-04-11T08:09:23.186Z,17.40
2018-04-11T08:11:50.711Z,16.30
2018-04-11T08:14:18.288Z,17.57
2018-04-11T08:16:45.820Z,17.33
2018-04-11T08:19:13.394Z,17.60
2018-04-11T08:21:41.726Z,15.93
2018-04-11T08:24:09.255Z,16.67
2018-04-11T08:26:36.818Z,16.47
2018-04-11T08:29:04.346Z,15.70
2018-04-11T08:31:31.902Z,17.33
2018-04-11T08:34:00.191Z,16.20
2018-04-11T08:36:27.761Z,18.17
2018-04-11T08:38:55.292Z,16.77
2018-04-11T08:41:22.832Z,15.87
2018-04-11T08:43:50.360Z,17.17
2018-04-11T08:46:17.956Z,15.73
2018-04-11T08:48:45.457Z,16.77
2018-04-11T08:51:13.020Z,16.73
2018-04-11T08:53:40.549Z,16.70
2018-04-11T08:56:08.861Z,17.40
2018-04-11T08:58:36.401Z,16.57
2018-04-11T09:01:03.929Z,15.27
2018-04-11T09:03:31.470Z,16.87
2018-04-11T09:05:59.008Z,16.53
2018-04-11T09:08:26.573Z,17.07
2018-04-11T09:10:54.573Z,16.20
2018-04-11T09:13:22.883Z,16.60
2018-04-11T09:15:50.405Z,15.60
2018-04-11T09:18:17.956Z,17.07
2018-04-11T09:20:46.017Z,16.17
2018-04-11T09:23:13.590Z,16.67
2018-04-11T09:25:41.897Z,16.53
2018-04-11T09:28:09.490Z,15.00
2018-04-11T09:30:37.022Z,14.10
2018-04-11T09:33:04.566Z,15.13
2018-04-11T09:35:32.114Z,14.47
2018-04-11T09:37:59.637Z,15.40
2018-04-11T09:40:27.189Z,14.77
2018-04-11T09:42:54.711Z,14.10
2018-04-11T09:45:22.245Z,14.10
2018-04-11T09:47:49.769Z,14.03
2018-04-11T09:50:17.319Z,13.77
2018-04-11T09:52:44.857Z,11.87
2018-04-11T09:55:12.417Z,12.17
2018-04-11T09:57:39.973Z,12.77
2018-04-11T10:00:07.543Z,12.37
2018-04-11T10:02:36.859Z,13.20
2018-04-11T10:05:05.230Z,11.90
2018-04-11T10:07:32.814Z,12.63
2018-04-11T10:10:01.126Z,12.37
2018-04-11T10:12:28.680Z,11.53
2018-04-11T10:14:56.200Z,12.43
2018-04-11T10:17:23.759Z,10.97
2018-04-11T10:19:51.319Z,10.93
2018-04-11T10:22:18.897Z,11.10
2018-04-11T10:24:47.203Z,11.07
2018-04-11T10:27:14.789Z,10.33
2018-04-11T10:29:42.301Z,9.93
2018-04-11T10:32:09.848Z,10.10
2018-04-11T10:34:38.145Z,10.07
2018-04-11T10:37:05.696Z,9.60
2018-04-11T10:39:33.225Z,9.40
2018-04-11T10:42:00.748Z,9.30
2018-04-11T10:44:28.305Z,9.83
2018-04-11T10:46:55.828Z,9.43
2018-04-11T10:49:23.360Z,9.43
2018-04-11T10:51:51.678Z,9.00
2018-04-11T10:54:19.220Z,7.70
2018-04-11T10:56:46.741Z,8.90
2018-04-11T10:59:14.291Z,7.87
2018-04-11T11:01:41.824Z,8.50
2018-04-11T11:04:09.378Z,9.43
2018-04-11T11:06:36.914Z,12.37
2018-04-11T11:09:04.466Z,14.20
2018-04-11T11:11:31.991Z,14.50
2018-04-11T11:14:00.375Z,14.27
2018-04-11T11:16:34.710Z,14.83
2018-04-11T11:19:02.279Z,13.97
2018-04-11T11:21:29.818Z,12.40
2018-04-11T11:23:57.336Z,11.97
2018-04-11T11:26:24.883Z,13.00
2018-04-11T11:28:52.483Z,12.30
2018-04-11T11:31:20.787Z,15.33
2018-04-11T11:33:48.307Z,16.73
2018-04-11T11:36:15.871Z,16.50
2018-04-11T11:38:44.188Z,15.80
2018-04-11T11:41:11.740Z,15.97
2018-04-11T11:43:39.266Z,15.70
2018-04-11T11:46:07.617Z,15.17
2018-04-11T11:48:35.144Z,15.00
2018-04-11T11:51:02.710Z,15.37
2018-04-11T11:53:30.248Z,14.27
2018-04-11T11:55:57.807Z,11.37
2018-04-11T11:58:25.347Z,15.53
2018-04-11T12:00:52.920Z,14.73
2018-04-11T12:03:20.475Z,15.57
2018-04-11T12:05:48.000Z,16.10
2018-04-11T12:08:15.557Z,16.30
2018-04-11T12:10:43.086Z,18.23
2018-04-11T12:13:10.632Z,15.70
2018-04-11T12:15:38.177Z,17.13
2018-04-11T12:18:05.779Z,16.70
2018-04-11T12:20:33.321Z,19.70
2018-04-11T12:23:00.881Z,21.37
2018-04-11T12:25:28.640Z,19.37
2018-04-11T12:27:56.206Z,19.97
2018-04-11T12:30:23.741Z,20.60
2018-04-11T12:32:51.284Z,20.00
2018-04-11T12:35:18.847Z,19.10
2018-04-11T12:37:46.380Z,19.60
2018-04-11T12:40:14.701Z,20.03
2018-04-11T12:42:42.795Z,20.03
2018-04-11T12:45:10.356Z,18.83
2018-04-11T12:47:37.897Z,20.60
2018-04-11T12:50:05.441Z,20.57
2018-04-11T12:52:33.007Z,20.43
2018-04-11T12:55:00.567Z,24.70
2018-04-11T12:57:28.095Z,21.73
2018-04-11T12:59:55.644Z,22.73
2018-04-11T13:02:23.174Z,22.17
2018-04-11T13:04:50.717Z,21.60
2018-04-11T13:07:18.260Z,21.77
2018-04-11T13:09:45.785Z,19.80
2018-04-11T13:12:13.344Z,21.90
2018-04-11T13:14:40.878Z,22.47
2018-04-11T13:17:08.425Z,22.53
2018-04-11T13:19:36.729Z,23.77
2018-04-11T13:22:04.268Z,24.97
2018-04-11T13:24:32.567Z,23.93
2018-04-11T13:27:00.102Z,25.10
2018-04-11T13:29:28.391Z,25.63
2018-04-11T13:31:55.925Z,24.53
2018-04-11T13:34:24.237Z,23.67
2018-04-11T13:36:51.795Z,24.80
2018-04-11T13:39:19.324Z,22.23
2018-04-11T13:41:46.842Z,26.43
2018-04-11T13:44:14.436Z,27.50
2018-04-11T13:46:42.744Z,27.43
2018-04-11T13:49:10.302Z,28.70
2018-04-11T13:51:37.820Z,28.43
2018-04-11T13:54:05.429Z,27.07
2018-04-11T13:56:32.947Z,27.10
2018-04-11T13:59:01.269Z,26.97
2018-04-11T14:01:28.857Z,27.17
2018-04-11T14:03:56.417Z,27.63
2018-04-11T14:06:24.069Z,28.80
2018-04-11T14:08:51.635Z,27.50
2018-04-11T14:11:19.255Z,28.23
2018-04-11T14:13:46.966Z,28.03
2018-04-11T14:16:14.522Z,26.50
2018-04-11T14:18:42.056Z,27.67
2018-04-11T14:21:09.616Z,27.30
2018-04-11T14:23:37.143Z,27.80
2018-04-11T14:26:04.687Z,27.93
2018-04-11T14:28:32.309Z,28.40
2018-04-11T14:30:59.972Z,28.03
2018-04-11T14:33:27.513Z,28.23
2018-04-11T14:35:55.888Z,29.07
2018-04-11T14:38:23.524Z,27.07
2018-04-11T14:40:51.259Z,28.43
2018-04-11T14:43:19.569Z,27.23
2018-04-11T14:45:47.450Z,26.97
2018-04-11T14:48:15.123Z,26.33
2018-04-11T14:50:43.364Z,26.27
2018-04-11T14:53:11.007Z,27.23
2018-04-11T14:55:38.601Z,26.53
2018-04-11T14:58:06.178Z,26.53
2018-04-11T15:00:33.746Z,28.50
2018-04-11T15:03:01.289Z,28.60
2018-04-11T15:05:28.820Z,28.10
2018-04-11T15:07:56.378Z,28.50
2018-04-11T15:10:23.950Z,27.63
2018-04-11T15:12:51.509Z,28.00
2018-04-11T15:15:19.067Z,27.77
2018-04-11T15:17:46.603Z,27.63
2018-04-11T15:20:14.164Z,26.37
2018-04-11T15:22:41.701Z,28.67
2018-04-11T15:25:09.345Z,28.17
2018-04-11T15:27:37.665Z,27.23
2018-04-11T15:30:06.148Z,28.77
2018-04-11T15:32:33.675Z,29.17
2018-04-11T15:35:01.691Z,27.47
2018-04-11T15:37:29.272Z,29.13
2018-04-11T15:39:56.803Z,29.10
2018-04-11T15:42:24.361Z,31.20
2018-04-11T15:44:51.883Z,29.67
2018-04-11T15:47:19.443Z,28.30
2018-04-11T15:49:46.984Z,29.50
2018-04-11T15:52:15.319Z,30.13
2018-04-11T15:54:42.861Z,29.53
2018-04-11T15:57:10.450Z,30.50
2018-04-11T15:59:37.982Z,29.93
2018-04-11T16:02:05.523Z,31.63
2018-04-11T16:04:33.051Z,29.17
2018-04-11T16:07:00.593Z,29.30
2018-04-11T16:09:29.298Z,28.97
2018-04-11T16:11:56.853Z,31.20
2018-04-11T16:14:25.191Z,27.93
2018-04-11T16:16:52.711Z,28.10
2018-04-11T16:19:20.227Z,26.80
2018-04-11T16:21:47.771Z,28.27
2018-04-11T16:24:15.778Z,28.43
2018-04-11T16:26:43.314Z,27.87
2018-04-11T16:29:10.902Z,27.80
2018-04-11T16:31:38.452Z,26.97
2018-04-11T16:34:06.761Z,25.20
2018-04-11T16:36:34.280Z,26.80
2018-04-11T16:39:01.825Z,25.67
2018-04-11T16:41:29.353Z,28.20
2018-04-11T16:43:56.888Z,26.07
2018-04-11T16:46:24.426Z,24.97
2018-04-11T16:48:51.971Z,26.50
2018-04-11T16:51:19.511Z,26.20
2018-04-11T16:53:47.066Z,25.77
2018-04-11T16:56:14.605Z,26.47
2018-04-11T16:58:42.154Z,27.33
2018-04-11T17:01:09.697Z,27.57
2018-04-11T17:03:37.267Z,26.27
2018-04-11T17:06:04.888Z,26.37
2018-04-11T17:08:33.200Z,27.17
2018-04-11T17:11:00.727Z,26.73
2018-04-11T17:13:29.019Z,27.50
2018-04-11T17:15:56.570Z,27.73
2018-04-11T17:18:24.102Z,26.57
2018-04-11T17:21:04.145Z,26.73
2018-04-11T17:23:43.313Z,26.80
2018-04-11T17:26:22.585Z,26.43
2018-04-11T17:29:01.819Z,28.47
2018-04-11T17:31:29.403Z,28.67
2018-04-11T17:33:57.719Z,28.43
2018-04-11T17:36:25.281Z,30.30
2018-04-11T17:38:52.813Z,30.80
2018-04-11T17:41:20.359Z,29.40
2018-04-11T17:43:48.921Z,30.50
2018-04-11T17:46:16.460Z,29.50
2018-04-11T17:48:43.985Z,29.17
2018-04-11T17:51:11.539Z,31.10
2018-04-11T17:53:39.855Z,31.13
2018-04-11T17:56:07.403Z,31.83
2018-04-11T17:58:34.929Z,31.77
2018-04-11T18:01:02.468Z,30.67
2018-04-11T18:03:30.024Z,32.33
2018-04-11T18:05:57.568Z,30.53
2018-04-11T18:08:25.134Z,32.67
2018-04-11T18:10:53.532Z,32.10
2018-04-11T18:13:21.074Z,31.00
2018-04-11T18:15:48.622Z,33.17
2018-04-11T18:18:16.963Z,33.67
2018-04-11T18:20:44.493Z,41.63
2018-04-11T18:23:12.050Z,42.70
2018-04-11T18:25:39.634Z,38.03
2018-04-11T18:28:07.195Z,33.17
2018-04-11T18:30:34.741Z,31.63
2018-04-11T18:33:02.304Z,33.77
2018-04-11T18:35:29.860Z,31.77
2018-04-11T18:37:57.417Z,32.13
2018-04-11T18:40:24.972Z,33.33
2018-04-11T18:42:52.541Z,34.37
2018-04-11T18:45:20.088Z,32.30
2018-04-11T18:47:47.856Z,32.40
2018-04-11T18:50:15.433Z,34.83
2018-04-11T18:52:42.982Z,33.87
2018-04-11T18:55:10.544Z,33.03
2018-04-11T18:57:38.082Z,32.47
2018-04-11T19:00:05.633Z,32.13
2018-04-11T19:02:33.168Z,31.87
2018-04-11T19:05:00.708Z,32.30
2018-04-11T19:07:28.269Z,31.60
2018-04-11T19:09:55.808Z,33.27
2018-04-11T19:12:24.105Z,32.97
2018-04-11T19:14:51.661Z,34.27
2018-04-11T19:17:19.212Z,34.03
2018-04-11T19:19:46.799Z,32.50
2018-04-11T19:22:14.328Z,33.73
2018-04-11T19:24:41.865Z,34.43
2018-04-11T19:27:09.412Z,32.83
2018-04-11T19:29:36.934Z,30.27
2018-04-11T19:32:04.507Z,31.80
2018-04-11T19:34:32.031Z,34.67
2018-04-11T19:37:00.342Z,34.43
2018-04-11T19:39:27.868Z,34.00
2018-04-11T19:41:55.458Z,35.23
2018-04-11T19:44:23.257Z,35.07
2018-04-11T19:46:50.841Z,35.10
2018-04-11T19:49:19.149Z,35.90
2018-04-11T19:51:47.601Z,34.37
2018-04-11T19:54:15.909Z,35.57
2018-04-11T19:56:43.500Z,37.27
2018-04-11T19:59:11.055Z,34.33
2018-04-11T20:01:38.588Z,36.57
2018-04-11T20:04:06.154Z,35.63
2018-04-11T20:06:33.700Z,35.80
2018-04-11T20:09:01.253Z,37.50
2018-04-11T20:11:28.814Z,36.00
2018-04-11T20:13:57.150Z,37.77
2018-04-11T20:16:24.707Z,39.87
2018-04-11T20:18:52.266Z,40.43
2018-04-11T20:21:19.808Z,37.80
2018-04-11T20:23:47.359Z,37.10
2018-04-11T20:26:14.898Z,37.37
2018-04-11T20:28:42.459Z,38.97
2018-04-11T20:31:09.988Z,39.53
2018-04-11T20:33:37.544Z,39.30
2018-04-11T20:36:05.084Z,40.63
2018-04-11T20:38:33.400Z,42.43
2018-04-11T20:41:00.920Z,41.97
2018-04-11T20:43:28.464Z,43.63
2018-04-11T20:45:56.009Z,40.43
2018-04-11T20:48:23.620Z,39.87
2018-04-11T20:50:51.162Z,40.97
2018-04-11T20:53:19.232Z,41.13
2018-04-11T20:55:46.987Z,38.90
2018-04-11T20:58:14.536Z,39.37
2018-04-11T21:00:42.839Z,40.77
2018-04-11T21:03:10.381Z,40.13
2018-04-11T21:05:38.680Z,40.67
2018-04-11T21:08:06.272Z,42.60
2018-04-11T21:10:33.810Z,39.77
2018-04-11T21:13:01.353Z,40.57
2018-04-11T21:15:28.912Z,41.53
2018-04-11T21:17:56.469Z,38.57
2018-04-11T21:20:24.062Z,39.67
2018-04-11T21:22:53.015Z,41.13
2018-04-11T21:25:20.584Z,41.93
2018-04-11T21:27:48.117Z,37.73
2018-04-11T21:30:15.663Z,38.87
2018-04-11T21:32:43.196Z,37.87
2018-04-11T21:35:10.752Z,41.00
2018-04-11T21:37:38.289Z,40.17
2018-04-11T21:40:05.873Z,38.77
2018-04-11T21:42:33.407Z,36.73
2018-04-11T21:45:00.971Z,38.77
2018-04-11T21:47:28.553Z,37.40
2018-04-11T21:49:56.110Z,38.53
2018-04-11T21:52:23.868Z,37.80
2018-04-11T21:54:51.415Z,37.47
2018-04-11T21:57:18.953Z,39.07
2018-04-11T21:59:46.512Z,36.80
2018-04-11T22:02:14.059Z,36.87
2018-04-11T22:04:41.601Z,38.13
2018-04-11T22:07:09.130Z,38.07
2018-04-11T22:09:37.446Z,38.10
2018-04-11T22:12:05.023Z,38.17
2018-04-11T22:14:32.574Z,36.87
2018-04-11T22:17:00.092Z,39.00
2018-04-11T22:19:28.421Z,37.80
2018-04-11T22:21:55.953Z,38.43
2018-04-11T22:24:23.513Z,38.63
2018-04-11T22:26:51.060Z,36.53
2018-04-11T22:29:18.608Z,37.40
2018-04-11T22:31:46.158Z,38.57
2018-04-11T22:34:14.439Z,37.60
2018-04-11T22:36:42.757Z,37.20
2018-04-11T22:39:10.287Z,38.87
2018-04-11T22:41:37.836Z,36.43
2018-04-11T22:44:05.378Z,38.07
2018-04-11T22:46:32.959Z,36.83
2018-04-11T22:49:00.487Z,35.60
2018-04-11T22:51:28.819Z,37.00
2018-04-11T22:53:56.355Z,34.77
2018-04-11T22:56:23.900Z,36.83
2018-04-11T22:58:51.419Z,36.90
2018-04-11T23:01:18.967Z,35.97
2018-04-11T23:03:46.533Z,31.77
2018-04-11T23:06:14.079Z,35.50
2018-04-11T23:08:41.600Z,34.20
2018-04-11T23:11:09.140Z,35.03
2018-04-11T23:13:36.672Z,34.67
2018-04-11T23:16:04.204Z,34.67
2018-04-11T23:18:31.761Z,34.13
2018-04-11T23:20:59.284Z,36.13
2018-04-11T23:23:26.836Z,35.20
2018-04-11T23:25:54.370Z,34.53
2018-04-11T23:28:21.956Z,34.87
2018-04-11T23:30:49.485Z,35.37
2018-04-11T23:33:17.033Z,33.17
2018-04-11T23:35:44.559Z,31.37
2018-04-11T23:38:12.100Z,34.27
2018-04-11T23:40:39.629Z,35.07
2018-04-11T23:43:07.956Z,32.93
2018-04-11T23:45:35.473Z,34.97
2018-04-11T23:48:03.037Z,32.30
2018-04-11T23:50:30.572Z,34.77
2018-04-11T23:52:58.856Z,34.77
2018-04-11T23:55:27.169Z,32.70
2018-04-11T23:57:54.721Z,33.07
